Time;durP1;ratioP1;P1;durP2;ratioP2;P2;SDS_P1;SDS_P2;PMS_P1;PMS_P2;Temp;Humidity;BMP_temperature;BMP_pressure;BME280_temperature;BME280_humidity;BME280_pressure;Samples;Min_cycle;Max_cycle;Signal;HPM_P1;HPM_P2
2021/06/11 00:00:27;;;;;;;4.18;2.17;;;;;;;14.38;100.00;102055.41;5276360;28;20028;-82
2021/06/11 00:02:58;;;;;;;5.30;2.30;;;;;;;14.31;100.00;102053.50;5258169;28;20028;-82
2021/06/11 00:05:28;;;;;;;2.90;2.25;;;;;;;14.27;100.00;102057.53;5274759;28;20399;-82
2021/06/11 00:07:59;;;;;;;4.60;2.08;;;;;;;14.21;100.00;102056.34;5256427;28;20016;-82
2021/06/11 00:10:29;;;;;;;3.35;2.28;;;;;;;14.17;100.00;102050.41;5274664;28;20093;-82
2021/06/11 00:13:00;;;;;;;5.93;2.50;;;;;;;14.15;100.00;102060.50;5274662;28;20047;-82
2021/06/11 00:15:31;;;;;;;3.35;2.20;;;;;;;14.09;100.00;102046.81;5276870;28;20035;-82
2021/06/11 00:18:02;;;;;;;4.90;2.63;;;;;;;14.08;100.00;102053.22;5257115;28;20048;-82
2021/06/11 00:20:33;;;;;;;4.15;2.67;;;;;;;14.04;100.00;102049.13;5276029;28;20047;-82
2021/06/11 00:23:03;;;;;;;4.50;2.53;;;;;;;14.02;100.00;102043.91;5272780;28;20016;-82
2021/06/11 00:25:34;;;;;;;6.13;2.35;;;;;;;13.99;100.00;102055.84;5270132;28;20062;-82
2021/06/11 00:28:05;;;;;;;7.45;2.63;;;;;;;13.97;100.00;102049.78;5267017;28;20015;-82
2021/06/11 00:30:36;;;;;;;3.95;2.33;;;;;;;13.96;100.00;102040.00;5274733;28;20020;-82
2021/06/11 00:33:09;;;;;;;3.95;2.33;;;;;;;13.94;100.00;102047.38;5275211;28;20020;-82
2021/06/11 00:35:39;;;;;;;5.40;2.20;;;;;;;13.90;100.00;102039.78;5273932;28;20107;-82
2021/06/11 00:38:10;;;;;;;6.28;2.35;;;;;;;13.88;100.00;102041.78;5261324;28;20659;-82
2021/06/11 00:40:42;;;;;;;4.63;2.20;;;;;;;13.83;100.00;102038.72;5274864;28;20111;-82
2021/06/11 00:43:13;;;;;;;4.43;2.50;;;;;;;13.79;100.00;102032.78;5257434;28;20020;-82
2021/06/11 00:45:44;;;;;;;4.82;2.22;;;;;;;13.76;100.00;102043.91;5276583;28;20016;-82
2021/06/11 00:48:15;;;;;;;5.80;2.55;;;;;;;13.73;100.00;102039.66;5279673;28;20059;-83
2021/06/11 00:50:46;;;;;;;3.17;2.28;;;;;;;13.70;100.00;102036.44;5279226;28;20446;-83
2021/06/11 00:53:17;;;;;;;4.57;2.83;;;;;;;13.67;100.00;102037.63;5279684;28;20036;-83
2021/06/11 00:55:48;;;;;;;3.88;2.58;;;;;;;13.63;100.00;102040.78;5279960;28;20016;-83
2021/06/11 00:58:19;;;;;;;6.43;2.50;;;;;;;13.60;100.00;102033.84;5261465;28;20028;-83
2021/06/11 01:00:50;;;;;;;5.60;2.92;;;;;;;13.56;100.00;102037.88;5279266;28;20012;-82
2021/06/11 01:03:20;;;;;;;4.70;2.80;;;;;;;13.52;100.00;102031.09;5279723;28;20024;-83
2021/06/11 01:05:51;;;;;;;6.82;3.30;;;;;;;13.50;100.00;102038.47;5279902;28;20073;-82
2021/06/11 01:08:23;;;;;;;7.00;3.00;;;;;;;13.47;100.00;102036.94;5279315;28;20080;-82
2021/06/11 01:10:55;;;;;;;5.07;3.13;;;;;;;13.43;100.00;102024.78;5278836;28;20024;-83
2021/06/11 01:13:26;;;;;;;5.70;3.08;;;;;;;13.43;100.00;102035.56;5282841;28;20035;-82
2021/06/11 01:15:57;;;;;;;5.15;2.17;;;;;;;13.43;100.00;102038.25;5290040;28;20004;-82
2021/06/11 01:18:27;;;;;;;3.85;2.55;;;;;;;13.43;100.00;102040.13;5287140;28;20047;-82
2021/06/11 01:20:59;;;;;;;5.63;3.17;;;;;;;13.39;100.00;102036.88;5257421;28;20118;-83
2021/06/11 01:23:41;;;;;;;7.25;3.13;;;;;;;13.36;100.00;102041.75;5270445;28;20027;-83
2021/06/11 01:26:22;;;;;;;8.52;2.58;;;;;;;13.33;100.00;102042.06;5272205;28;20040;-82
2021/06/11 01:28:58;;;;;;;5.63;2.35;;;;;;;13.30;100.00;102045.03;5271892;28;20035;-83
2021/06/11 01:31:30;;;;;;;;;;;;;;;13.25;100.00;102045.50;5272095;28;20543;-83
2021/06/11 01:34:05;;;;;;;6.35;2.92;;;;;;;13.22;100.00;102035.06;5271179;28;19934;-83
2021/06/11 01:36:45;;;;;;;3.90;2.22;;;;;;;13.15;100.00;102021.34;5257732;28;20083;-82
2021/06/11 01:39:27;;;;;;;9.02;2.50;;;;;;;13.12;100.00;102032.41;5270652;28;20028;-82
2021/06/11 01:41:59;;;;;;;5.45;2.70;;;;;;;13.09;100.00;102034.56;5270689;28;20083;-83
2021/06/11 01:44:37;;;;;;;5.40;2.80;;;;;;;13.05;100.00;102036.72;5270770;28;20047;-82
2021/06/11 01:47:08;;;;;;;5.95;2.60;;;;;;;13.04;100.00;102037.69;5270672;28;20024;-83
2021/06/11 01:49:42;;;;;;;4.22;2.38;;;;;;;12.99;100.00;102029.25;5269650;28;20549;-83
2021/06/11 01:52:14;;;;;;;3.83;2.22;;;;;;;12.97;100.00;102025.88;5270146;28;20028;-82
2021/06/11 01:54:46;;;;;;;9.20;3.72;;;;;;;12.90;100.00;102027.47;5269849;28;20020;-83
2021/06/11 01:57:17;;;;;;;10.68;3.70;;;;;;;12.85;100.00;102027.94;5269099;28;20028;-82
2021/06/11 01:59:51;;;;;;;9.25;3.90;;;;;;;12.85;100.00;102027.94;5268694;28;20028;-83
2021/06/11 02:02:22;;;;;;;7.90;3.80;;;;;;;12.84;100.00;102031.59;5268907;28;20016;-82
2021/06/11 02:04:54;;;;;;;9.90;3.38;;;;;;;12.86;100.00;102031.47;5268838;28;20050;-82
2021/06/11 02:07:25;;;;;;;7.93;3.40;;;;;;;12.83;100.00;102034.47;5268911;28;20106;-82
2021/06/11 02:09:57;;;;;;;8.90;3.63;;;;;;;12.78;100.00;102026.84;5267962;28;20044;-82
2021/06/11 02:12:27;;;;;;;10.70;3.45;;;;;;;12.78;100.00;102020.59;5268249;28;20487;-82
2021/06/11 02:14:59;;;;;;;9.75;4.20;;;;;;;12.76;100.00;102023.47;5250005;28;20020;-83
2021/06/11 02:17:31;;;;;;;6.97;3.80;;;;;;;12.72;100.00;102019.38;5266804;28;20089;-83
2021/06/11 02:20:04;;;;;;;8.93;4.00;;;;;;;12.69;100.00;102015.13;5267310;28;20016;-83
2021/06/11 02:22:37;;;;;;;6.63;2.80;;;;;;;12.66;100.00;102020.84;5270070;28;20080;-83
2021/06/11 02:25:09;;;;;;;4.30;2.60;;;;;;;12.61;100.00;102024.97;5270494;28;20255;-83
2021/06/11 02:27:40;;;;;;;8.98;3.35;;;;;;;12.60;100.00;102024.13;5270557;28;20028;-83
2021/06/11 02:30:14;;;;;;;10.38;4.07;;;;;;;12.59;100.00;102027.81;5270409;28;20024;-83
2021/06/11 02:32:46;;;;;;;9.05;3.70;;;;;;;12.59;100.00;102016.19;5270189;28;20032;-82
2021/06/11 02:35:19;;;;;;;11.10;3.83;;;;;;;12.58;100.00;102022.56;5269638;28;20027;-83
2021/06/11 02:37:50;;;;;;;11.52;3.85;;;;;;;12.54;100.00;102023.88;5251382;28;20020;-82
2021/06/11 02:40:21;;;;;;;8.88;4.55;;;;;;;12.49;100.00;102020.78;5268732;28;20395;-82
2021/06/11 02:42:57;;;;;;;9.75;4.20;;;;;;;12.47;100.00;102018.25;5261697;28;20016;-82
2021/06/11 02:45:30;;;;;;;10.18;4.13;;;;;;;12.42;100.00;102016.00;5268433;28;20399;-83
2021/06/11 02:48:21;;;;;;;8.75;3.33;;;;;;;12.38;100.00;102008.38;5268226;28;20020;-82
2021/06/11 02:51:02;;;;;;;8.88;3.78;;;;;;;12.34;100.00;102012.38;5267248;28;20024;-83
2021/06/11 02:53:35;;;;;;;8.90;3.80;;;;;;;12.32;100.00;102007.13;5267909;28;20027;-82
2021/06/11 02:56:12;;;;;;;9.57;3.88;;;;;;;12.32;100.00;102015.22;5267558;28;20085;-82
2021/06/11 02:58:47;;;;;;;5.70;2.55;;;;;;;12.29;100.00;102006.59;5249993;28;20023;-83
2021/06/11 03:01:19;;;;;;;5.63;2.17;;;;;;;12.26;100.00;102014.97;5278129;28;20436;-83
2021/06/11 03:03:51;;;;;;;4.30;2.40;;;;;;;12.22;100.00;102009.03;5278523;28;20099;-83
2021/06/11 03:06:23;;;;;;;6.80;2.80;;;;;;;12.20;100.00;102002.97;5278739;28;20028;-83
2021/06/11 03:08:55;;;;;;;8.20;3.60;;;;;;;12.16;100.00;102007.78;5279267;28;20024;-82
2021/06/11 03:11:37;;;;;;;6.80;3.33;;;;;;;12.15;100.00;102002.56;5260220;28;20024;-82
2021/06/11 03:14:10;;;;;;;9.88;3.00;;;;;;;12.14;100.00;101996.31;5279245;28;20030;-83
2021/06/11 03:16:46;;;;;;;4.45;2.53;;;;;;;12.12;100.00;101997.47;5280716;28;20024;-82
2021/06/11 03:19:19;;;;;;;5.88;2.95;;;;;;;12.11;100.00;101985.88;5278977;28;20055;-82
2021/06/11 03:21:56;;;;;;;7.25;3.00;;;;;;;12.09;100.00;101990.53;5278851;28;20020;-82
2021/06/11 03:24:36;;;;;;;7.13;3.13;;;;;;;12.10;100.00;101986.88;5278591;28;20028;-82
2021/06/11 03:27:13;;;;;;;9.02;3.63;;;;;;;12.08;100.00;101985.31;5260641;28;20038;-83
2021/06/11 03:30:05;;;;;;;9.25;4.07;;;;;;;12.08;100.00;101982.63;5279467;28;20058;-82
2021/06/11 03:32:44;;;;;;;9.05;3.88;;;;;;;12.08;100.00;101985.31;5278126;28;20043;-83
2021/06/11 03:35:20;;;;;;;7.35;3.85;;;;;;;12.07;100.00;101989.84;5279022;28;20020;-82
2021/06/11 03:37:54;;;;;;;8.57;3.50;;;;;;;12.08;100.00;101986.16;5278017;28;20077;-82
2021/06/11 03:40:29;;;;;;;8.38;3.83;;;;;;;12.15;100.00;101989.94;5277746;28;20020;-83
2021/06/11 03:43:00;;;;;;;8.00;3.78;;;;;;;12.22;100.00;101994.72;5264882;28;20027;-82
2021/06/11 03:45:31;;;;;;;10.13;3.80;;;;;;;12.27;100.00;101995.13;5278365;28;20026;-83
2021/06/11 03:48:05;;;;;;;8.38;4.25;;;;;;;12.27;100.00;101997.81;5278238;28;20079;-83
2021/06/11 03:50:36;;;;;;;6.80;3.95;;;;;;;12.24;100.00;101990.88;5277429;28;20020;-83
2021/06/11 03:53:08;;;;;;;8.18;4.05;;;;;;;12.25;100.00;101997.09;5278154;28;20447;-82
2021/06/11 03:55:46;;;;;;;7.63;3.60;;;;;;;12.28;100.00;102003.03;5277961;28;20024;-83
2021/06/11 03:58:38;;;;;;;12.90;3.95;;;;;;;12.32;100.00;101998.22;5277865;28;20085;-83
2021/06/11 04:01:14;;;;;;;8.75;3.90;;;;;;;12.32;100.00;102001.75;5264936;28;20048;-83
2021/06/11 04:03:45;;;;;;;11.70;4.07;;;;;;;12.33;100.00;102002.59;5278341;28;20024;-82
2021/06/11 04:06:20;;;;;;;8.57;3.50;;;;;;;12.36;100.00;101995.09;5277138;28;20028;-83
2021/06/11 04:08:56;;;;;;;13.57;4.33;;;;;;;12.41;100.00;102000.88;5277196;28;20112;-83
2021/06/11 04:11:29;;;;;;;8.35;4.07;;;;;;;12.46;100.00;102002.25;5277273;28;20043;-82
2021/06/11 04:14:02;;;;;;;9.55;3.97;;;;;;;12.49;100.00;101992.03;5277217;28;20027;-83
2021/06/11 04:16:49;;;;;;;10.68;4.60;;;;;;;12.53;100.00;101996.09;5277432;28;20015;-82
2021/06/11 04:19:32;;;;;;;8.77;3.78;;;;;;;12.56;100.00;101989.59;5276831;28;20032;-83
2021/06/11 04:22:04;;;;;;;9.82;4.38;;;;;;;12.58;100.00;101988.44;5277105;28;20027;-83
2021/06/11 04:24:37;;;;;;;9.93;4.07;;;;;;;12.63;100.00;101993.34;5274605;28;20027;-83
2021/06/11 04:27:08;;;;;;;12.48;5.60;;;;;;;12.77;100.00;102003.59;5277321;28;20108;-83
2021/06/11 04:29:39;;;;;;;15.82;6.65;;;;;;;12.88;100.00;101998.00;5277774;28;20016;-82
2021/06/11 04:32:10;;;;;;;13.77;6.07;;;;;;;13.01;100.00;101999.47;5277373;28;20358;-83
2021/06/11 04:34:41;;;;;;;11.70;5.70;;;;;;;13.09;100.00;102000.38;5282643;28;20119;-83
2021/06/11 04:37:17;;;;;;;15.35;6.57;;;;;;;13.21;100.00;101995.63;5285185;28;20016;-82
2021/06/11 04:39:47;;;;;;;18.25;6.43;;;;;;;13.34;100.00;102001.47;5270862;28;20073;-83
2021/06/11 04:42:18;;;;;;;20.63;7.60;;;;;;;13.44;100.00;102004.06;5270115;28;20032;-83
2021/06/11 04:44:49;;;;;;;15.48;6.07;;;;;;;13.54;100.00;102002.13;5276613;28;20020;-82
2021/06/11 04:47:19;;;;;;;20.05;7.85;;;;;;;13.70;100.00;102010.34;5275754;28;20035;-83
2021/06/11 04:49:49;;;;;;;18.92;7.10;;;;;;;13.78;100.00;102006.00;5277052;28;20386;-83
2021/06/11 04:52:20;;;;;;;18.23;7.70;;;;;;;13.91;100.00;101998.31;5277138;28;20099;-83
2021/06/11 04:54:52;;;;;;;16.50;6.80;;;;;;;14.00;100.00;102006.28;5277153;28;20042;-83
2021/06/11 04:57:22;;;;;;;16.30;7.57;;;;;;;14.11;100.00;102010.56;5276532;28;20035;-83
2021/06/11 04:59:53;;;;;;;24.27;8.75;;;;;;;14.28;100.00;102010.63;5276443;28;20472;-83
2021/06/11 05:02:23;;;;;;;17.60;7.97;;;;;;;14.41;100.00;102011.03;5276488;28;20569;-82
2021/06/11 05:04:54;;;;;;;26.55;9.73;;;;;;;14.52;100.00;102008.06;5272404;28;20489;-83
2021/06/11 05:07:24;;;;;;;21.83;7.97;;;;;;;14.66;100.00;102006.56;5272833;28;20036;-83
2021/06/11 05:09:55;;;;;;;18.08;8.27;;;;;;;14.77;100.00;102015.22;5276311;28;20040;-82
2021/06/11 05:12:25;;;;;;;18.73;8.43;;;;;;;14.93;100.00;102013.56;5276608;28;20032;-82
2021/06/11 05:14:56;;;;;;;23.02;9.40;;;;;;;15.16;100.00;102019.16;5277695;28;20075;-82
2021/06/11 05:17:26;;;;;;;25.80;8.18;;;;;;;15.28;100.00;102017.81;5276421;28;20039;-82
2021/06/11 05:19:58;;;;;;;18.45;8.10;;;;;;;15.54;100.00;102023.03;5276174;28;20052;-82
2021/06/11 05:22:28;;;;;;;17.20;7.53;;;;;;;16.51;100.00;102021.09;5271251;28;20024;-83
2021/06/11 05:25:01;;;;;;;15.27;7.05;;;;;;;17.86;100.00;102015.03;5264128;28;20573;-83
2021/06/11 05:27:31;;;;;;;14.73;5.80;;;;;;;19.40;100.00;102011.22;5267862;28;20016;-83
2021/06/11 05:30:02;;;;;;;15.65;5.43;;;;;;;20.74;100.00;102007.44;5269505;28;20126;-83
2021/06/11 05:32:33;;;;;;;15.63;6.10;;;;;;;21.48;100.00;102009.25;5269437;28;20073;-83
2021/06/11 05:35:04;;;;;;;19.17;5.20;;;;;;;22.39;100.00;102015.63;5268408;28;20058;-83
2021/06/11 05:37:34;;;;;;;12.48;5.68;;;;;;;22.60;100.00;102010.91;5266508;28;20399;-83
2021/06/11 05:40:05;;;;;;;13.95;5.70;;;;;;;23.47;100.00;102012.00;5267371;28;20016;-83
2021/06/11 05:42:36;;;;;;;18.27;5.25;;;;;;;23.71;100.00;102015.84;5266697;28;20600;-83
2021/06/11 05:45:07;;;;;;;19.60;5.82;;;;;;;24.32;100.00;102014.94;5266289;28;20122;-83
2021/06/11 05:47:39;;;;;;;14.20;5.22;;;;;;;24.54;100.00;102016.16;5265116;28;20040;-85
2021/06/11 05:50:10;;;;;;;12.52;5.97;;;;;;;24.86;100.00;102026.94;5265214;28;20020;-82
2021/06/11 05:52:40;;;;;;;11.45;4.90;;;;;;;24.91;100.00;102026.25;5267529;28;20024;-83
2021/06/11 05:55:13;;;;;;;11.50;4.28;;;;;;;25.11;100.00;102035.06;5266835;28;20491;-83
2021/06/11 05:57:44;;;;;;;13.05;5.22;;;;;;;25.42;96.19;102035.84;5266236;28;20144;-83
2021/06/11 06:00:15;;;;;;;12.43;5.03;;;;;;;25.30;94.54;102036.66;5253292;28;20020;-83
2021/06/11 06:02:46;;;;;;;9.82;5.05;;;;;;;24.93;99.88;102040.56;5274877;28;20387;-83
2021/06/11 06:05:16;;;;;;;12.50;4.78;;;;;;;24.61;100.00;102040.78;5274917;28;20035;-83
2021/06/11 06:07:47;;;;;;;9.40;4.97;;;;;;;25.37;94.15;102033.78;5273620;28;20024;-83
2021/06/11 06:10:17;;;;;;;9.68;5.13;;;;;;;26.23;82.68;102028.66;5273187;28;20020;-83
2021/06/11 06:12:47;;;;;;;11.52;5.18;;;;;;;25.56;90.73;102037.28;5273123;28;20092;-83
2021/06/11 06:15:18;;;;;;;10.88;5.30;;;;;;;25.48;91.42;102024.72;5275725;28;20053;-83
2021/06/11 06:17:48;;;;;;;11.23;5.15;;;;;;;25.32;96.96;102039.16;5273404;28;20168;-83
2021/06/11 06:20:19;;;;;;;10.38;5.70;;;;;;;24.99;100.00;102042.38;5273751;28;20035;-83
2021/06/11 06:22:49;;;;;;;12.95;4.72;;;;;;;25.09;100.00;102031.69;5272321;28;20020;-83
2021/06/11 06:25:20;;;;;;;10.52;5.13;;;;;;;25.57;96.87;102031.53;5274141;28;20028;-84
2021/06/11 06:27:51;;;;;;;7.93;4.30;;;;;;;26.25;81.34;102040.25;5273772;28;20125;-84
2021/06/11 06:30:23;;;;;;;8.15;4.25;;;;;;;25.94;85.41;102020.34;5273347;28;20035;-82
2021/06/11 06:32:53;;;;;;;8.35;4.75;;;;;;;26.31;87.33;102028.31;5272782;28;20099;-83
2021/06/11 06:35:24;;;;;;;8.98;4.60;;;;;;;25.89;86.89;102019.38;5275266;28;20059;-83
2021/06/11 06:37:54;;;;;;;8.13;4.93;;;;;;;25.65;93.06;102022.09;5273565;28;20540;-83
2021/06/11 06:40:25;;;;;;;7.80;4.70;;;;;;;26.12;91.19;102022.13;5274993;28;20055;-83
2021/06/11 06:42:55;;;;;;;8.25;4.57;;;;;;;25.94;82.92;102017.59;5277114;28;20012;-82
2021/06/11 06:45:26;;;;;;;11.82;5.20;;;;;;;24.54;100.00;102027.13;5277750;28;20020;-81
2021/06/11 06:47:56;;;;;;;12.13;5.53;;;;;;;24.35;100.00;102022.72;5277057;28;20020;-82
2021/06/11 06:50:27;;;;;;;9.40;4.72;;;;;;;24.11;100.00;102029.97;5277577;28;20043;-82
2021/06/11 06:53:03;;;;;;;11.70;5.05;;;;;;;24.04;100.00;102026.44;5272763;28;20383;-82
2021/06/11 06:55:34;;;;;;;10.30;5.03;;;;;;;23.34;100.00;102023.06;5250688;28;20400;-83
2021/06/11 06:58:07;;;;;;;15.00;5.57;;;;;;;23.29;100.00;102031.94;5252059;28;20032;-82
2021/06/11 07:00:40;;;;;;;20.35;5.55;;;;;;;23.11;100.00;102023.66;5270853;28;20026;-82
2021/06/11 07:03:10;;;;;;;11.23;5.65;;;;;;;22.95;100.00;102030.50;5275032;28;20214;-83
2021/06/11 07:05:45;;;;;;;10.98;5.40;;;;;;;22.39;100.00;102028.41;5275092;28;20047;-82
2021/06/11 07:08:15;;;;;;;9.80;5.13;;;;;;;22.26;100.00;102032.06;5276590;28;20058;-83
2021/06/11 07:10:46;;;;;;;10.93;4.88;;;;;;;22.18;100.00;102024.06;5277990;28;20024;-83
2021/06/11 07:13:17;;;;;;;12.77;5.85;;;;;;;22.22;100.00;102030.78;5281910;28;20043;-82
2021/06/11 07:15:47;;;;;;;12.25;5.68;;;;;;;22.07;100.00;102016.50;5281325;28;20016;-83
2021/06/11 07:18:18;;;;;;;14.57;6.15;;;;;;;22.24;100.00;102017.78;5278420;28;20051;-83
2021/06/11 07:20:48;;;;;;;16.25;6.80;;;;;;;22.51;100.00;102012.19;5278415;28;20024;-83
2021/06/11 07:23:19;;;;;;;18.63;8.10;;;;;;;22.53;100.00;102018.28;5276657;28;20095;-83
2021/06/11 07:25:49;;;;;;;15.68;8.02;;;;;;;22.24;100.00;102020.50;5279693;28;20034;-83
2021/06/11 07:28:20;;;;;;;19.58;7.43;;;;;;;22.21;100.00;102026.38;5278966;28;20040;-83
2021/06/11 07:30:50;;;;;;;18.58;7.88;;;;;;;22.26;100.00;102029.31;5275274;28;20475;-83
2021/06/11 07:33:21;;;;;;;18.48;7.45;;;;;;;22.20;100.00;102021.97;5276101;28;20028;-82
2021/06/11 07:35:51;;;;;;;15.18;7.65;;;;;;;22.18;100.00;102024.06;5267587;28;20089;-82
2021/06/11 07:38:22;;;;;;;15.05;7.50;;;;;;;22.00;100.00;102019.28;5266697;28;20078;-83
2021/06/11 07:40:53;;;;;;;14.82;7.00;;;;;;;22.08;100.00;102034.59;5266335;28;20502;-83
2021/06/11 07:43:24;;;;;;;13.98;6.63;;;;;;;22.21;100.00;102040.88;5258451;28;20008;-83
2021/06/11 07:45:55;;;;;;;14.27;6.20;;;;;;;22.08;100.00;102029.94;5265708;28;20028;-83
2021/06/11 07:48:25;;;;;;;14.30;6.80;;;;;;;22.27;100.00;102031.00;5265341;28;20471;-83
2021/06/11 07:50:56;;;;;;;15.82;6.53;;;;;;;22.38;100.00;102037.69;5264776;28;20027;-83
2021/06/11 07:53:26;;;;;;;19.13;6.95;;;;;;;22.61;100.00;102037.19;5245777;28;20025;-83
2021/06/11 07:55:57;;;;;;;13.93;7.32;;;;;;;22.54;100.00;102041.81;5263751;28;20395;-83
2021/06/11 07:58:27;;;;;;;14.07;7.05;;;;;;;22.63;100.00;102048.72;5278984;28;20058;-81
2021/06/11 08:00:58;;;;;;;18.65;7.35;;;;;;;22.88;100.00;102046.06;5273929;28;20024;-83
2021/06/11 08:03:28;;;;;;;14.88;8.20;;;;;;;22.72;100.00;102041.97;5277495;28;20035;-83
2021/06/11 08:05:59;;;;;;;18.33;8.40;;;;;;;22.81;100.00;102039.81;5248425;28;20084;-83
2021/06/11 08:08:29;;;;;;;16.20;8.35;;;;;;;23.02;100.00;102034.03;5265034;28;20028;-83
2021/06/11 08:11:00;;;;;;;15.48;7.10;;;;;;;23.09;100.00;102036.72;5259123;28;20032;-83
2021/06/11 08:13:30;;;;;;;17.17;7.57;;;;;;;22.71;100.00;102040.28;5265173;28;20530;-83
2021/06/11 08:16:01;;;;;;;12.80;6.28;;;;;;;23.05;100.00;102040.97;5269159;28;20586;-83
2021/06/11 08:18:32;;;;;;;10.70;5.70;;;;;;;23.06;100.00;102048.97;5263930;28;20467;-84
2021/06/11 08:21:02;;;;;;;16.42;6.38;;;;;;;22.92;100.00;102047.34;5253351;28;20024;-84
2021/06/11 08:23:33;;;;;;;9.70;4.80;;;;;;;23.12;100.00;102036.28;5264962;28;20024;-84
2021/06/11 08:26:03;;;;;;;9.82;4.20;;;;;;;23.14;100.00;102034.16;5251084;28;20063;-84
2021/06/11 08:28:34;;;;;;;10.07;5.25;;;;;;;23.47;100.00;102028.44;5264282;28;20336;-83
2021/06/11 08:31:05;;;;;;;9.90;4.13;;;;;;;23.72;100.00;102032.03;5264575;28;20023;-84
2021/06/11 08:33:36;;;;;;;11.43;4.43;;;;;;;23.82;100.00;102036.16;5264305;28;20084;-83
2021/06/11 08:36:07;;;;;;;12.05;4.38;;;;;;;24.10;100.00;102038.41;5263727;28;20028;-84
2021/06/11 08:38:37;;;;;;;9.50;3.42;;;;;;;24.01;100.00;102040.63;5264122;28;20028;-84
2021/06/11 08:41:10;;;;;;;9.82;3.42;;;;;;;23.86;100.00;102030.00;5264164;28;20024;-84
2021/06/11 08:43:41;;;;;;;8.07;2.92;;;;;;;24.01;100.00;102030.50;5264545;28;20035;-83
2021/06/11 08:46:14;;;;;;;5.70;3.40;;;;;;;24.01;100.00;102030.50;5264655;28;20475;-83
2021/06/11 08:48:45;;;;;;;7.38;2.97;;;;;;;23.91;100.00;102027.44;5264451;28;20024;-83
2021/06/11 08:51:16;;;;;;;4.53;2.38;;;;;;;24.20;100.00;102034.09;5264283;28;20047;-83
2021/06/11 08:53:46;;;;;;;5.93;3.00;;;;;;;24.14;100.00;102034.97;5264544;28;20024;-83
2021/06/11 08:56:17;;;;;;;6.07;2.72;;;;;;;24.27;100.00;102042.22;5264079;28;20591;-82
2021/06/11 08:58:49;;;;;;;5.88;2.33;;;;;;;24.15;100.00;102033.94;5278743;28;20475;-82
2021/06/11 09:01:20;;;;;;;4.50;2.30;;;;;;;24.36;100.00;102035.41;5265022;28;20067;-82
2021/06/11 09:03:56;;;;;;;6.00;2.72;;;;;;;24.78;100.00;102030.00;5265850;28;20447;-82
2021/06/11 09:06:26;;;;;;;4.28;2.40;;;;;;;24.82;100.00;102030.38;5265776;28;20059;-82
2021/06/11 09:09:01;;;;;;;6.53;2.50;;;;;;;24.85;100.00;102039.00;5265327;28;20048;-82
2021/06/11 09:11:34;;;;;;;7.23;2.70;;;;;;;25.03;100.00;102027.94;5265343;28;20075;-82
2021/06/11 09:14:12;;;;;;;7.93;2.50;;;;;;;25.13;100.00;102030.16;5265451;28;20020;-82
2021/06/11 09:16:48;;;;;;;6.68;2.65;;;;;;;25.23;94.87;102037.81;5257494;28;20027;-82
2021/06/11 09:19:19;;;;;;;3.30;2.30;;;;;;;25.33;92.11;102029.84;5265641;28;20081;-82
2021/06/11 09:21:51;;;;;;;4.95;2.30;;;;;;;25.28;88.81;102037.94;5266112;28;20019;-82
2021/06/11 09:24:33;;;;;;;4.80;2.00;;;;;;;25.19;95.92;102029.19;5265590;28;20034;-82
2021/06/11 09:27:11;;;;;;;4.25;2.20;;;;;;;25.06;100.00;102029.41;5265557;28;20052;-82
2021/06/11 09:29:49;;;;;;;3.35;1.77;;;;;;;25.33;96.70;102026.25;5251783;28;20587;-82
2021/06/11 09:32:30;;;;;;;5.75;2.20;;;;;;;25.46;100.00;102024.13;5265864;28;20089;-82
2021/06/11 09:35:04;;;;;;;6.78;2.53;;;;;;;25.74;100.00;102020.66;5264778;28;20028;-82
2021/06/11 09:37:39;;;;;;;2.35;1.98;;;;;;;26.06;87.47;102023.91;5265109;28;20024;-82
2021/06/11 09:40:12;;;;;;;3.20;1.85;;;;;;;25.91;83.45;102017.25;5264957;28;20376;-82
2021/06/11 09:42:47;;;;;;;5.15;1.92;;;;;;;25.95;80.61;102016.50;5262072;28;20035;-82
2021/06/11 09:45:20;;;;;;;5.35;1.98;;;;;;;25.69;83.58;102012.31;5246338;28;20024;-82
2021/06/11 09:47:51;;;;;;;4.63;2.53;;;;;;;25.49;93.08;102009.06;5265395;28;20024;-82
2021/06/11 09:50:26;;;;;;;2.60;1.90;;;;;;;25.55;95.96;102011.72;5264634;28;20384;-82
2021/06/11 09:52:59;;;;;;;5.03;2.05;;;;;;;25.73;100.00;102015.41;5265120;28;20024;-82
2021/06/11 09:55:42;;;;;;;5.05;2.30;;;;;;;25.83;92.55;102011.03;5264414;28;20020;-81
2021/06/11 09:58:17;;;;;;;2.72;2.00;;;;;;;26.02;93.10;102014.47;5279848;28;20028;-82
2021/06/11 10:00:53;;;;;;;;;;;;;;;26.41;79.55;102020.25;5266962;28;20055;-80
2021/06/11 10:03:26;;;;;;;2.25;1.50;;;;;;;26.40;94.93;102009.47;5274908;28;19915;-80
2021/06/11 10:06:00;;;;;;;4.30;1.73;;;;;;;26.56;79.28;102009.59;5272659;28;20092;-80
2021/06/11 10:08:31;;;;;;;2.15;1.55;;;;;;;26.78;89.54;102008.91;5255305;28;20263;-80
2021/06/11 10:11:04;;;;;;;3.28;1.52;;;;;;;27.31;85.98;102007.66;5268674;28;20028;-80
2021/06/11 10:13:35;;;;;;;2.80;1.52;;;;;;;27.49;84.75;102006.56;5265538;28;20024;-80
2021/06/11 10:16:11;;;;;;;6.47;2.15;;;;;;;27.33;81.54;102009.09;5267341;28;20036;-80
2021/06/11 10:18:42;;;;;;;2.95;1.70;;;;;;;27.57;77.88;102008.91;5266456;28;20066;-79
2021/06/11 10:21:13;;;;;;;3.85;1.55;;;;;;;27.27;76.18;102006.50;5268979;28;20040;-80
2021/06/11 10:23:43;;;;;;;5.65;1.95;;;;;;;27.19;76.26;102002.22;5271162;28;20099;-81
2021/06/11 10:26:14;;;;;;;4.78;1.60;;;;;;;27.27;72.04;102006.50;5269178;28;20027;-80
2021/06/11 10:28:49;;;;;;;1.85;1.45;;;;;;;27.10;73.18;102012.81;5253574;28;20030;-81
2021/06/11 10:31:20;;;;;;;;;;;;;;;27.28;72.29;101995.22;5251132;28;20114;-81
2021/06/11 10:34:00;;;;;;;3.80;1.90;;;;;;;27.23;69.10;101999.81;5268679;28;19935;-80
2021/06/11 10:36:34;;;;;;;4.88;1.65;;;;;;;27.33;78.82;101998.06;5261451;28;20021;-81
2021/06/11 10:39:07;;;;;;;3.00;1.83;;;;;;;27.61;78.41;101997.13;5254843;28;20031;-81
2021/06/11 10:42:09;;;;;;;2.65;1.67;;;;;;;27.48;67.47;102002.16;5270286;28;20024;-81
2021/06/11 10:44:52;;;;;;;2.42;1.48;;;;;;;27.51;67.03;101985.97;5264887;28;20151;-81
2021/06/11 10:47:24;;;;;;;2.72;1.63;;;;;;;27.05;71.72;101989.81;5274206;28;20024;-80
2021/06/11 10:49:57;;;;;;;3.58;2.00;;;;;;;26.99;73.06;101999.91;5277022;28;20043;-81
2021/06/11 10:52:39;;;;;;;5.10;1.60;;;;;;;27.17;67.63;101992.56;5277576;28;20039;-81
2021/06/11 10:55:19;;;;;;;1.73;1.42;;;;;;;27.24;63.26;101993.22;5277847;28;20086;-81
2021/06/11 10:57:52;;;;;;;2.10;1.40;;;;;;;27.42;70.14;101989.38;5276975;28;20035;-81
2021/06/11 11:00:22;;;;;;;3.55;1.77;;;;;;;27.51;70.18;101985.09;5281306;28;20131;-80
2021/06/11 11:02:55;;;;;;;3.40;1.65;;;;;;;27.39;63.54;101976.94;5282278;28;20367;-80
2021/06/11 11:05:32;;;;;;;5.85;2.15;;;;;;;27.33;70.37;101986.22;5267518;28;20060;-83
2021/06/11 11:08:07;;;;;;;2.58;2.05;;;;;;;27.57;71.87;101990.47;5265962;28;20383;-83
2021/06/11 11:10:47;;;;;;;6.35;1.75;;;;;;;27.51;66.69;101977.69;5265278;28;20103;-83
2021/06/11 11:13:19;;;;;;;1.50;1.40;;;;;;;27.61;67.64;101982.50;5266237;28;20028;-83
2021/06/11 11:15:51;;;;;;;2.25;1.35;;;;;;;27.82;62.71;101983.69;5247643;28;20039;-83
2021/06/11 11:18:33;;;;;;;3.45;1.92;;;;;;;27.88;65.23;101983.50;5265803;28;20059;-83
2021/06/11 11:21:39;;;;;;;3.33;1.83;;;;;;;27.91;61.52;101982.13;5264728;28;20035;-83
2021/06/11 11:24:13;;;;;;;2.35;2.10;;;;;;;27.87;67.71;101984.59;5265757;28;20028;-83
2021/06/11 11:26:46;;;;;;;;;;;;;;;28.04;62.47;101967.97;5266035;28;20023;-83
2021/06/11 11:29:18;;;;;;;3.45;1.75;;;;;;;28.17;63.34;101975.03;5264860;28;20007;-83
2021/06/11 11:31:51;;;;;;;3.42;1.92;;;;;;;28.09;61.49;101973.56;5270351;28;20035;-83
2021/06/11 11:34:21;;;;;;;2.13;1.80;;;;;;;28.12;58.22;101966.72;5286985;28;20077;-83
2021/06/11 11:36:52;;;;;;;2.30;1.83;;;;;;;28.32;56.64;101966.13;5287650;28;20047;-83
2021/06/11 11:39:22;;;;;;;1.77;1.50;;;;;;;28.09;59.34;101956.19;5271436;28;20051;-83
2021/06/11 11:41:55;;;;;;;2.08;1.60;;;;;;;28.20;61.39;101963.47;5264762;28;20105;-83